Riverside, Nebraska
Current Conditions -  °F | °C
As of 9:55 PM on Thursday 27 Nov 2014 (Local Time) from KBIE Reporting Station
Clear Clear  
Wind Chill: 22°   Ceiling: Unl
Heat Index: 31°   Visibility: 10mi
Dew Point: 19°   Wind: 12mph
Humidity: 62%   Direction: 160°SSE
Pressure: 30.14"   Gusts: 17mph
Location:  40.2674°N, 96.7699°W
Report Text: KBIE 280355Z AUTO 16010G15KT 10SM CLR M01/M07 A3014 RMK AO2 T10061071
Loading
Personal Weather Stations






























Interactive Weather Map New forecast layout! Learn more

10-Day Weather Forecast

Advertisements
Track Severe Weather on mobile